Time;durP1;ratioP1;P1;durP2;ratioP2;P2;SDS_P1;SDS_P2;PMS_P1;PMS_P2;Temp;Humidity;BMP_temperature;BMP_pressure;BME280_temperature;BME280_humidity;BME280_pressure;Samples;Min_cycle;Max_cycle;Signal;HPM_P1;HPM_P2
2023/12/16 00:00:42;;;;;;;4.35;1.50;;;20.10;72.50;;;;;;2062694;28;20401;-67
2023/12/16 00:01:43;;;;;;;4.00;1.40;;;20.10;72.50;;;;;;2059053;28;20085;-66
2023/12/16 00:02:44;;;;;;;4.00;1.73;;;20.10;72.50;;;;;;2061207;28;20049;-67
2023/12/16 00:03:45;;;;;;;3.38;1.40;;;20.10;72.50;;;;;;2063848;28;20068;-68
2023/12/16 00:04:45;;;;;;;3.65;1.50;;;20.10;72.50;;;;;;2060369;28;20023;-67
2023/12/16 00:05:48;;;;;;;3.47;1.50;;;20.10;72.60;;;;;;2061727;28;20028;-67
2023/12/16 00:06:48;;;;;;;4.00;1.38;;;20.10;72.50;;;;;;2063949;28;20076;-67
2023/12/16 00:07:49;;;;;;;2.58;1.27;;;20.10;72.50;;;;;;2063337;28;20109;-67
2023/12/16 00:08:50;;;;;;;4.75;2.17;;;20.10;72.50;;;;;;2063253;28;20057;-67
2023/12/16 00:09:50;;;;;;;2.45;1.33;;;20.10;72.40;;;;;;2063589;28;20023;-67
2023/12/16 00:10:51;;;;;;;4.22;1.38;;;20.10;72.40;;;;;;2063720;28;20606;-68
2023/12/16 00:11:52;;;;;;;3.53;1.40;;;20.10;72.40;;;;;;2063235;28;20690;-68
2023/12/16 00:12:53;;;;;;;3.90;1.60;;;20.10;72.30;;;;;;2063711;28;20065;-67
2023/12/16 00:13:53;;;;;;;3.08;1.40;;;20.10;72.30;;;;;;2058256;28;20487;-67
2023/12/16 00:14:54;;;;;;;1.48;0.95;;;20.10;72.30;;;;;;2062296;28;20315;-68
2023/12/16 00:15:55;;;;;;;2.88;1.20;;;20.10;72.20;;;;;;2057612;28;20125;-67
2023/12/16 00:16:55;;;;;;;2.65;1.23;;;20.10;72.20;;;;;;2063330;28;20069;-67
2023/12/16 00:17:56;;;;;;;5.35;1.40;;;20.10;72.10;;;;;;2063021;28;20065;-67
2023/12/16 00:18:56;;;;;;;2.83;1.27;;;20.10;72.10;;;;;;2057561;28;20037;-67
2023/12/16 00:19:57;;;;;;;3.83;1.35;;;20.10;72.20;;;;;;2059500;28;20571;-67
2023/12/16 00:20:57;;;;;;;3.13;1.10;;;20.10;72.20;;;;;;2063859;28;20702;-67
2023/12/16 00:21:58;;;;;;;3.13;1.13;;;20.10;72.20;;;;;;2062514;28;20500;-67
2023/12/16 00:22:58;;;;;;;4.00;1.33;;;20.10;72.20;;;;;;2063068;28;20105;-67
2023/12/16 00:23:59;;;;;;;3.55;1.50;;;20.10;72.10;;;;;;2058843;28;20117;-68
2023/12/16 00:25:00;;;;;;;2.25;1.30;;;20.10;72.20;;;;;;2062364;28;20022;-67
2023/12/16 00:26:00;;;;;;;3.38;1.40;;;20.00;72.10;;;;;;2058866;28;20039;-68
2023/12/16 00:27:01;;;;;;;4.25;1.50;;;20.10;72.10;;;;;;2062680;28;20025;-67
2023/12/16 00:28:01;;;;;;;5.45;1.60;;;20.00;72.10;;;;;;2062401;28;20019;-67
2023/12/16 00:29:02;;;;;;;2.85;1.40;;;20.00;72.10;;;;;;2063828;28;20026;-68
2023/12/16 00:30:06;;;;;;;4.20;1.17;;;20.10;72.10;;;;;;2062965;28;20026;-67
2023/12/16 00:31:06;;;;;;;2.10;1.13;;;20.10;72.10;;;;;;2059868;28;20023;-67
2023/12/16 00:32:07;;;;;;;4.40;1.20;;;20.10;72.10;;;;;;2062850;28;20113;-67
2023/12/16 00:33:08;;;;;;;2.47;1.25;;;20.10;72.10;;;;;;2062539;28;20041;-67
2023/12/16 00:34:10;;;;;;;1.88;1.27;;;20.00;72.10;;;;;;2063238;28;20018;-67
2023/12/16 00:35:11;;;;;;;5.68;1.33;;;20.10;72.00;;;;;;2061418;28;20041;-68
2023/12/16 00:36:11;;;;;;;2.95;1.50;;;20.00;72.00;;;;;;2058573;28;20483;-66
2023/12/16 00:37:12;;;;;;;2.88;1.05;;;20.00;72.10;;;;;;2058193;28;20268;-67
2023/12/16 00:38:12;;;;;;;3.00;1.58;;;20.00;72.00;;;;;;2063628;28;20041;-66
2023/12/16 00:39:13;;;;;;;2.60;1.13;;;20.00;72.10;;;;;;2062249;28;20049;-67
2023/12/16 00:40:14;;;;;;;3.58;1.33;;;20.00;72.00;;;;;;2057768;28;20130;-67
2023/12/16 00:41:14;;;;;;;4.85;1.70;;;20.00;72.10;;;;;;2062334;28;20045;-67
2023/12/16 00:42:15;;;;;;;2.15;1.00;;;20.00;72.10;;;;;;2057304;28;20046;-67
2023/12/16 00:43:15;;;;;;;4.35;1.63;;;20.00;72.00;;;;;;2058161;28;20066;-66
2023/12/16 00:44:16;;;;;;;3.63;1.00;;;20.00;72.00;;;;;;2061836;28;20021;-67
2023/12/16 00:45:17;;;;;;;3.20;1.67;;;20.00;71.90;;;;;;2061408;28;20077;-67
2023/12/16 00:46:17;;;;;;;3.00;1.40;;;20.00;71.90;;;;;;2062327;28;20022;-67
2023/12/16 00:47:18;;;;;;;1.83;1.00;;;20.00;71.90;;;;;;2061248;28;20038;-67
2023/12/16 00:48:18;;;;;;;3.38;1.15;;;20.00;71.90;;;;;;2061237;28;20130;-67
2023/12/16 00:49:19;;;;;;;2.33;1.42;;;20.00;71.90;;;;;;2060687;28;20031;-68
2023/12/16 00:50:19;;;;;;;4.85;1.60;;;20.00;71.90;;;;;;2058168;28;20022;-67
2023/12/16 00:51:20;;;;;;;2.53;1.40;;;20.00;72.00;;;;;;2057762;28;20014;-67
2023/12/16 00:52:22;;;;;;;2.45;1.35;;;20.00;71.90;;;;;;2063317;28;20068;-67
2023/12/16 00:53:22;;;;;;;2.42;1.45;;;20.00;71.90;;;;;;2057833;28;20117;-67
2023/12/16 00:54:24;;;;;;;2.28;1.20;;;20.00;71.90;;;;;;2061328;28;20082;-67
2023/12/16 00:55:24;;;;;;;3.05;1.30;;;20.00;71.90;;;;;;2058465;28;20100;-67
2023/12/16 00:56:25;;;;;;;3.00;1.30;;;20.00;71.90;;;;;;2063046;28;20377;-67
2023/12/16 00:57:25;;;;;;;4.10;1.50;;;20.00;71.90;;;;;;2061528;28;20018;-68
2023/12/16 00:58:26;;;;;;;3.13;1.40;;;20.00;71.90;;;;;;2055619;28;20174;-67
2023/12/16 00:59:26;;;;;;;3.80;1.50;;;20.00;71.80;;;;;;2056690;28;20443;-67
2023/12/16 01:00:27;;;;;;;2.40;1.10;;;20.00;71.80;;;;;;2059232;28;20022;-68
2023/12/16 01:01:27;;;;;;;3.72;1.58;;;20.00;71.80;;;;;;2059042;28;20038;-67
2023/12/16 01:02:28;;;;;;;2.95;1.40;;;20.00;71.80;;;;;;2053261;28;20346;-66
2023/12/16 01:03:28;;;;;;;3.97;1.48;;;20.00;71.80;;;;;;2061170;28;20053;-68
2023/12/16 01:04:29;;;;;;;2.25;1.40;;;20.00;71.80;;;;;;2060774;28;20021;-67
2023/12/16 01:05:30;;;;;;;3.58;1.30;;;20.00;71.70;;;;;;2059896;28;20774;-67
2023/12/16 01:06:30;;;;;;;1.90;1.27;;;20.00;71.70;;;;;;2062018;28;20514;-67
2023/12/16 01:07:31;;;;;;;2.92;1.50;;;20.00;71.70;;;;;;2061289;28;20640;-67
2023/12/16 01:08:32;;;;;;;3.83;1.73;;;20.00;71.70;;;;;;2061237;28;20027;-68
2023/12/16 01:09:33;;;;;;;2.35;1.23;;;20.00;71.80;;;;;;2061982;28;20042;-68
2023/12/16 01:10:33;;;;;;;2.80;1.33;;;20.00;71.70;;;;;;2061437;28;20022;-67
2023/12/16 01:11:34;;;;;;;3.78;1.40;;;20.00;72.40;;;;;;2061718;28;20022;-67
2023/12/16 01:12:35;;;;;;;3.67;1.45;;;20.00;71.70;;;;;;2061877;28;20517;-67
2023/12/16 01:13:35;;;;;;;3.55;1.27;;;19.90;71.60;;;;;;2061856;28;20382;-67
2023/12/16 01:14:36;;;;;;;2.85;1.20;;;19.90;71.60;;;;;;2061291;28;20027;-68
2023/12/16 01:15:36;;;;;;;2.00;1.05;;;20.00;71.60;;;;;;2059242;28;20126;-67
2023/12/16 01:16:37;;;;;;;4.10;1.25;;;19.90;71.50;;;;;;2063211;28;20026;-67
2023/12/16 01:17:38;;;;;;;3.03;1.33;;;20.00;71.60;;;;;;2059361;28;20022;-67
2023/12/16 01:18:38;;;;;;;2.50;1.27;;;20.00;71.60;;;;;;2060158;28;20045;-67
2023/12/16 01:19:39;;;;;;;3.13;1.35;;;19.90;71.60;;;;;;2060450;28;20514;-68
2023/12/16 01:20:40;;;;;;;3.20;1.40;;;19.90;71.50;;;;;;2057229;28;20034;-67
2023/12/16 01:21:41;;;;;;;2.90;1.25;;;19.90;71.50;;;;;;2058792;28;20372;-68
2023/12/16 01:22:42;;;;;;;2.03;1.20;;;19.90;71.50;;;;;;2057978;28;20121;-66
2023/12/16 01:23:43;;;;;;;2.10;1.27;;;19.90;71.50;;;;;;2054056;28;20038;-67
2023/12/16 01:24:43;;;;;;;3.22;1.33;;;19.90;71.50;;;;;;2061116;28;20023;-67
2023/12/16 01:25:44;;;;;;;2.60;1.45;;;19.90;71.50;;;;;;2062621;28;20049;-66
2023/12/16 01:26:45;;;;;;;3.63;1.23;;;19.90;71.50;;;;;;2063036;28;20029;-66
2023/12/16 01:27:47;;;;;;;2.05;1.20;;;19.90;71.50;;;;;;2060993;28;20061;-67
2023/12/16 01:28:48;;;;;;;2.35;1.05;;;19.90;71.50;;;;;;2061274;28;20022;-67
2023/12/16 01:29:49;;;;;;;5.60;1.50;;;19.90;71.40;;;;;;2058473;28;20035;-68
2023/12/16 01:30:49;;;;;;;3.33;1.20;;;19.90;71.40;;;;;;2057628;28;20077;-68
2023/12/16 01:31:50;;;;;;;3.33;1.20;;;19.90;71.40;;;;;;2060956;28;20246;-68
2023/12/16 01:32:51;;;;;;;2.65;1.40;;;19.90;71.40;;;;;;2062637;28;20026;-67
2023/12/16 01:33:52;;;;;;;2.28;1.35;;;20.00;71.50;;;;;;2056282;28;20026;-68
2023/12/16 01:34:52;;;;;;;2.55;1.38;;;19.90;71.30;;;;;;2057396;28;20033;-67
2023/12/16 01:35:53;;;;;;;3.03;1.52;;;19.90;71.30;;;;;;2058669;28;20039;-68
2023/12/16 01:36:53;;;;;;;4.07;1.30;;;19.90;71.30;;;;;;2060827;28;20107;-67
2023/12/16 01:37:54;;;;;;;2.05;1.17;;;19.90;71.30;;;;;;2054698;28;20085;-68
2023/12/16 01:38:55;;;;;;;3.67;1.35;;;19.90;71.40;;;;;;2053839;28;20038;-67
2023/12/16 01:39:55;;;;;;;3.13;1.20;;;19.90;71.30;;;;;;2060458;28;20473;-67
2023/12/16 01:40:56;;;;;;;3.53;1.20;;;19.90;71.30;;;;;;2060764;28;20018;-67
2023/12/16 01:41:56;;;;;;;3.90;1.65;;;19.90;71.30;;;;;;2057079;28;20078;-67
2023/12/16 01:42:57;;;;;;;3.25;1.48;;;19.90;71.30;;;;;;2046787;28;20258;-67
2023/12/16 01:43:57;;;;;;;2.42;1.00;;;19.90;71.30;;;;;;2062080;28;20041;-67
2023/12/16 01:44:58;;;;;;;3.22;1.45;;;19.90;71.30;;;;;;2056971;28;20042;-67
2023/12/16 01:46:04;;;;;;;2.25;1.20;;;19.90;71.30;;;;;;2061473;28;20190;-67
2023/12/16 01:47:05;;;;;;;2.65;1.08;;;19.90;71.30;;;;;;2059186;28;20114;-68
2023/12/16 01:48:08;;;;;;;1.88;1.13;;;19.90;71.30;;;;;;2062339;28;20332;-66
2023/12/16 01:49:09;;;;;;;1.92;1.30;;;19.90;71.30;;;;;;2061330;28;20105;-67
2023/12/16 01:50:10;;;;;;;2.67;1.35;;;19.90;71.30;;;;;;2060993;28;20015;-67
2023/12/16 01:51:12;;;;;;;2.15;1.30;;;19.90;71.20;;;;;;2062297;28;20106;-66
2023/12/16 01:52:13;;;;;;;4.05;1.45;;;19.80;71.20;;;;;;2061826;28;20117;-66
2023/12/16 01:53:13;;;;;;;3.33;1.30;;;19.90;71.20;;;;;;2057662;28;20434;-67
2023/12/16 01:54:14;;;;;;;3.58;1.48;;;19.90;71.20;;;;;;2057456;28;20101;-67
2023/12/16 01:55:15;;;;;;;3.45;1.20;;;19.90;71.20;;;;;;2063153;28;20026;-68
2023/12/16 01:56:16;;;;;;;3.22;1.30;;;19.90;71.10;;;;;;2056689;28;20031;-67
2023/12/16 01:57:17;;;;;;;3.92;1.30;;;19.80;71.10;;;;;;2062085;28;20018;-67
2023/12/16 01:58:17;;;;;;;3.55;1.60;;;19.90;71.00;;;;;;2058779;28;20101;-67
2023/12/16 01:59:18;;;;;;;3.13;1.38;;;19.80;71.00;;;;;;2061880;28;20745;-67
2023/12/16 02:00:22;;;;;;;2.35;1.40;;;19.80;71.10;;;;;;2057338;28;20030;-67
2023/12/16 02:01:23;;;;;;;2.90;1.48;;;19.80;71.00;;;;;;2060986;28;20106;-67
2023/12/16 02:02:26;;;;;;;3.50;1.27;;;19.80;71.00;;;;;;2061140;28;20030;-67
2023/12/16 02:03:28;;;;;;;2.25;1.40;;;19.80;71.10;;;;;;2057724;28;20018;-67
2023/12/16 02:04:29;;;;;;;2.15;1.02;;;19.80;71.70;;;;;;2061403;28;20421;-67
2023/12/16 02:05:29;;;;;;;2.72;1.48;;;19.80;71.00;;;;;;2061087;28;20113;-67
2023/12/16 02:06:30;;;;;;;2.00;1.05;;;19.80;71.00;;;;;;2059989;28;20424;-67
2023/12/16 02:07:31;;;;;;;3.15;1.48;;;19.80;71.60;;;;;;2058096;28;20030;-67
2023/12/16 02:08:31;;;;;;;2.33;1.20;;;19.80;71.00;;;;;;2060638;28;20026;-67
2023/12/16 02:09:32;;;;;;;3.08;1.30;;;19.80;71.00;;;;;;2058018;28;20018;-67
2023/12/16 02:10:32;;;;;;;2.63;1.30;;;19.80;71.00;;;;;;2061657;28;20034;-67
2023/12/16 02:11:33;;;;;;;2.30;1.30;;;19.80;70.90;;;;;;2062274;28;20026;-67
2023/12/16 02:12:33;;;;;;;3.45;1.20;;;19.80;71.00;;;;;;2062373;28;20422;-67
2023/12/16 02:13:34;;;;;;;3.70;1.42;;;19.80;71.00;;;;;;2060774;28;20048;-67
2023/12/16 02:14:34;;;;;;;3.88;1.45;;;19.80;71.00;;;;;;2063029;28;20401;-67
2023/12/16 02:15:35;;;;;;;1.98;1.20;;;19.80;71.00;;;;;;2062757;28;20026;-66
2023/12/16 02:16:36;;;;;;;1.60;1.10;;;19.80;71.00;;;;;;2062278;28;20026;-67
2023/12/16 02:17:37;;;;;;;2.90;1.30;;;19.80;71.00;;;;;;2059656;28;20042;-67
2023/12/16 02:18:38;;;;;;;2.40;1.10;;;19.80;70.90;;;;;;2058072;28;20026;-66
2023/12/16 02:19:40;;;;;;;3.25;0.93;;;19.80;70.80;;;;;;2063054;28;20026;-67
2023/12/16 02:20:41;;;;;;;3.67;1.30;;;19.80;70.80;;;;;;2059536;28;20092;-67
2023/12/16 02:21:41;;;;;;;2.65;1.40;;;19.70;70.80;;;;;;2056815;28;20114;-67
2023/12/16 02:22:46;;;;;;;3.95;1.60;;;19.80;70.80;;;;;;2057346;28;20041;-66
2023/12/16 02:23:47;;;;;;;3.35;1.38;;;19.80;70.70;;;;;;2060419;28;20026;-66
2023/12/16 02:24:49;;;;;;;3.33;1.30;;;19.80;70.80;;;;;;2061699;28;20034;-67
2023/12/16 02:25:49;;;;;;;3.75;1.42;;;19.80;70.90;;;;;;2061433;28;20015;-67
2023/12/16 02:26:50;;;;;;;3.45;1.70;;;19.80;70.90;;;;;;2060260;28;20316;-67
2023/12/16 02:27:50;;;;;;;3.13;1.58;;;19.80;70.80;;;;;;2063101;28;20027;-66
2023/12/16 02:28:51;;;;;;;3.08;1.40;;;19.80;70.70;;;;;;2058795;28;20667;-67
2023/12/16 02:29:52;;;;;;;3.10;1.35;;;19.80;70.80;;;;;;2060762;28;20023;-67
2023/12/16 02:30:52;;;;;;;3.97;1.58;;;19.80;70.70;;;;;;2062889;28;20439;-66
2023/12/16 02:31:53;;;;;;;4.18;1.23;;;19.70;70.70;;;;;;2060427;28;20153;-66
2023/12/16 02:32:55;;;;;;;2.10;1.27;;;19.80;70.90;;;;;;2062103;28;20098;-67
2023/12/16 02:33:56;;;;;;;2.55;1.20;;;19.80;70.90;;;;;;2059943;28;20207;-67
2023/12/16 02:34:56;;;;;;;1.75;1.00;;;19.80;70.90;;;;;;2061547;28;20027;-66
2023/12/16 02:35:59;;;;;;;1.60;1.10;;;19.80;70.80;;;;;;2062762;28;20076;-66
2023/12/16 02:37:05;;;;;;;3.60;1.40;;;19.70;70.70;;;;;;2057091;28;20051;-67
2023/12/16 02:38:06;;;;;;;2.65;1.45;;;19.80;70.80;;;;;;2061976;28;20049;-67
2023/12/16 02:39:06;;;;;;;2.88;1.38;;;19.80;70.80;;;;;;2062572;28;20050;-66
2023/12/16 02:40:08;;;;;;;2.28;1.00;;;19.70;70.70;;;;;;2060640;28;20466;-67
2023/12/16 02:41:08;;;;;;;2.97;1.48;;;19.70;70.60;;;;;;2061902;28;20182;-66
2023/12/16 02:42:09;;;;;;;3.55;1.70;;;19.70;70.60;;;;;;2061910;28;20022;-67
2023/12/16 02:43:10;;;;;;;2.88;1.38;;;19.70;70.60;;;;;;2061958;28;20018;-67
2023/12/16 02:44:10;;;;;;;4.22;1.23;;;19.80;70.60;;;;;;2060323;28;20121;-67
2023/12/16 02:45:11;;;;;;;2.58;1.40;;;19.70;70.60;;;;;;2060310;28;20027;-66
2023/12/16 02:46:11;;;;;;;5.32;1.40;;;19.70;70.60;;;;;;2056494;28;20022;-66
2023/12/16 02:47:12;;;;;;;3.67;1.52;;;19.70;70.50;;;;;;2057387;28;20019;-67
2023/12/16 02:48:13;;;;;;;3.15;1.10;;;19.70;70.50;;;;;;2061638;28;20495;-67
2023/12/16 02:49:13;;;;;;;1.35;1.17;;;19.70;70.50;;;;;;2062437;28;20035;-66
2023/12/16 02:50:14;;;;;;;2.35;1.20;;;19.70;71.20;;;;;;2060176;28;20019;-67
2023/12/16 02:51:20;;;;;;;2.80;1.05;;;19.70;70.60;;;;;;2062047;28;20030;-67
2023/12/16 02:52:21;;;;;;;3.92;1.20;;;19.70;70.60;;;;;;2062431;28;20037;-67
2023/12/16 02:53:21;;;;;;;2.55;1.13;;;19.70;70.60;;;;;;2060945;28;20109;-66
2023/12/16 02:54:22;;;;;;;1.15;1.00;;;19.70;70.60;;;;;;2062371;28;20029;-67
2023/12/16 02:55:22;;;;;;;1.98;1.20;;;19.70;70.60;;;;;;2062698;28;20089;-67
2023/12/16 02:56:23;;;;;;;1.77;1.10;;;19.70;70.60;;;;;;2062173;28;20034;-67
2023/12/16 02:57:24;;;;;;;2.90;1.60;;;19.70;70.60;;;;;;2062498;28;20070;-67
2023/12/16 02:58:24;;;;;;;2.15;1.17;;;19.70;70.50;;;;;;2059834;28;20030;-67
2023/12/16 02:59:25;;;;;;;2.33;1.30;;;19.70;70.40;;;;;;2061343;28;20030;-67
2023/12/16 03:00:26;;;;;;;2.97;1.30;;;19.70;70.50;;;;;;2057446;28;20026;-66
2023/12/16 03:01:27;;;;;;;2.80;1.30;;;19.70;70.40;;;;;;2062061;28;20034;-67
2023/12/16 03:02:27;;;;;;;4.15;1.50;;;19.70;70.40;;;;;;2061919;28;20033;-67
2023/12/16 03:03:28;;;;;;;2.70;1.20;;;19.70;70.40;;;;;;2061273;28;20031;-67
2023/12/16 03:04:28;;;;;;;2.28;1.10;;;19.70;70.40;;;;;;2061938;28;20738;-67
2023/12/16 03:05:29;;;;;;;3.20;1.42;;;19.70;70.40;;;;;;2062135;28;20038;-67
2023/12/16 03:06:29;;;;;;;3.60;1.15;;;19.70;70.40;;;;;;2060105;28;20015;-67
2023/12/16 03:07:32;;;;;;;3.38;1.30;;;19.70;70.40;;;;;;2063102;28;20050;-67
2023/12/16 03:08:33;;;;;;;3.80;1.42;;;19.70;70.40;;;;;;2061983;28;20015;-67
2023/12/16 03:09:34;;;;;;;4.28;1.33;;;19.70;70.30;;;;;;2061194;28;20015;-67
2023/12/16 03:10:34;;;;;;;2.55;1.08;;;19.70;70.30;;;;;;2060909;28;20554;-67
2023/12/16 03:11:35;;;;;;;3.40;1.10;;;19.60;70.20;;;;;;2063396;28;20433;-67
2023/12/16 03:12:35;;;;;;;1.92;1.00;;;19.70;70.30;;;;;;2062214;28;20022;-67
2023/12/16 03:13:36;;;;;;;3.08;1.40;;;19.60;70.30;;;;;;2064236;28;20105;-67
2023/12/16 03:14:39;;;;;;;1.55;1.25;;;19.70;70.30;;;;;;2062893;28;20605;-67
2023/12/16 03:15:40;;;;;;;2.50;1.10;;;19.70;70.40;;;;;;2062745;28;20057;-66
2023/12/16 03:16:40;;;;;;;2.05;1.20;;;19.70;70.40;;;;;;2064130;28;20026;-66
2023/12/16 03:17:43;;;;;;;3.15;1.30;;;19.70;70.90;;;;;;2060845;28;20045;-67
2023/12/16 03:18:44;;;;;;;3.30;1.08;;;19.60;70.30;;;;;;2058009;28;20027;-66
2023/12/16 03:19:44;;;;;;;2.75;1.38;;;19.70;70.30;;;;;;2061473;28;20077;-67
2023/12/16 03:20:45;;;;;;;2.80;1.08;;;19.70;70.30;;;;;;2060331;28;20055;-67
2023/12/16 03:21:45;;;;;;;2.58;1.38;;;19.60;70.30;;;;;;2061803;28;20117;-67
2023/12/16 03:22:46;;;;;;;3.15;1.50;;;19.70;70.30;;;;;;2060626;28;20034;-67
2023/12/16 03:23:46;;;;;;;2.10;1.30;;;19.60;70.30;;;;;;2057728;28;20027;-67
2023/12/16 03:24:47;;;;;;;2.83;1.20;;;19.60;70.30;;;;;;2062583;28;20021;-67
2023/12/16 03:25:48;;;;;;;1.80;1.00;;;19.60;70.20;;;;;;2063608;28;20174;-67
2023/12/16 03:26:48;;;;;;;1.65;1.10;;;19.60;70.20;;;;;;2063858;28;20020;-66
2023/12/16 03:27:49;;;;;;;2.40;1.00;;;19.60;70.10;;;;;;2064103;28;20068;-68
2023/12/16 03:28:49;;;;;;;2.35;1.33;;;19.60;70.20;;;;;;2063627;28;20053;-67
2023/12/16 03:29:50;;;;;;;4.03;1.30;;;19.60;70.10;;;;;;2061460;28;20041;-67
2023/12/16 03:30:50;;;;;;;3.33;1.25;;;19.60;70.10;;;;;;2060315;28;20106;-67
2023/12/16 03:31:51;;;;;;;2.17;1.02;;;19.60;70.00;;;;;;2061773;28;20655;-67
2023/12/16 03:32:52;;;;;;;2.97;1.27;;;19.60;70.10;;;;;;2063871;28;20037;-67
2023/12/16 03:33:53;;;;;;;3.28;1.20;;;19.60;70.10;;;;;;2063373;28;20041;-67
2023/12/16 03:34:53;;;;;;;2.67;1.27;;;19.60;70.10;;;;;;2063582;28;20077;-67
2023/12/16 03:35:54;;;;;;;6.25;1.60;;;19.60;70.10;;;;;;2063534;28;20042;-66
2023/12/16 03:36:54;;;;;;;2.85;1.58;;;19.60;70.10;;;;;;2063340;28;20112;-66
2023/12/16 03:37:56;;;;;;;5.07;1.30;;;19.60;70.10;;;;;;2063488;28;20097;-67
2023/12/16 03:38:56;;;;;;;3.50;1.30;;;19.60;70.10;;;;;;2063769;28;20066;-67
2023/12/16 03:39:57;;;;;;;4.30;1.45;;;19.60;70.10;;;;;;2063212;28;20030;-67
2023/12/16 03:40:57;;;;;;;3.40;1.20;;;19.60;70.10;;;;;;2063572;28;20027;-67
2023/12/16 03:41:58;;;;;;;3.10;1.40;;;19.60;70.10;;;;;;2062650;28;20073;-67
2023/12/16 03:42:59;;;;;;;2.30;1.30;;;19.60;70.10;;;;;;2062570;28;20211;-67
2023/12/16 03:44:00;;;;;;;3.97;1.35;;;19.60;70.10;;;;;;2064040;28;20019;-67
2023/12/16 03:45:01;;;;;;;2.35;1.10;;;19.60;70.10;;;;;;2063151;28;20028;-67
2023/12/16 03:46:01;;;;;;;3.53;1.48;;;19.60;70.00;;;;;;2063462;28;20391;-67
2023/12/16 03:47:02;;;;;;;3.63;1.20;;;19.60;69.90;;;;;;2064167;28;20030;-68
2023/12/16 03:48:02;;;;;;;3.17;1.45;;;19.60;69.90;;;;;;2063242;28;20109;-68
2023/12/16 03:49:03;;;;;;;1.70;1.00;;;19.60;69.90;;;;;;2063486;28;20564;-67
2023/12/16 03:50:04;;;;;;;2.17;1.10;;;19.60;69.90;;;;;;2057659;28;20478;-66
2023/12/16 03:51:05;;;;;;;4.35;1.30;;;19.60;69.90;;;;;;2063036;28;20034;-67
2023/12/16 03:52:05;;;;;;;4.35;1.50;;;19.60;69.90;;;;;;2063386;28;20018;-67
2023/12/16 03:53:06;;;;;;;3.55;1.50;;;19.60;69.80;;;;;;2059682;28;20023;-66
2023/12/16 03:54:06;;;;;;;3.28;1.30;;;19.60;69.80;;;;;;2063091;28;20023;-67
2023/12/16 03:55:07;;;;;;;1.85;1.13;;;19.60;69.80;;;;;;2063623;28;20022;-66
2023/12/16 03:56:08;;;;;;;2.63;1.15;;;19.60;69.80;;;;;;2063690;28;20026;-67
2023/12/16 03:57:09;;;;;;;1.88;1.27;;;19.60;69.90;;;;;;2063949;28;20510;-66
2023/12/16 03:58:09;;;;;;;2.28;1.33;;;19.60;69.90;;;;;;2063950;28;20181;-67
2023/12/16 03:59:10;;;;;;;2.60;1.20;;;19.60;69.90;;;;;;2062475;28;20121;-67
2023/12/16 04:00:11;;;;;;;3.38;1.63;;;19.60;69.90;;;;;;2064387;28;20044;-67
2023/12/16 04:01:13;;;;;;;3.08;1.38;;;19.60;69.80;;;;;;2061968;28;20109;-66
2023/12/16 04:02:13;;;;;;;3.33;1.88;;;19.60;69.80;;;;;;2063492;28;20560;-67
2023/12/16 04:03:14;;;;;;;2.08;1.20;;;19.60;69.80;;;;;;2062845;28;20026;-67
2023/12/16 04:04:15;;;;;;;3.75;1.33;;;19.60;69.90;;;;;;2063822;28;20026;-67
2023/12/16 04:05:15;;;;;;;4.75;1.50;;;19.60;69.90;;;;;;2063186;28;20072;-67
2023/12/16 04:06:16;;;;;;;2.17;1.20;;;19.60;69.90;;;;;;2049860;28;20458;-67
2023/12/16 04:07:17;;;;;;;2.45;1.52;;;19.60;69.90;;;;;;2062042;28;20014;-67
2023/12/16 04:08:17;;;;;;;2.15;1.20;;;19.60;69.80;;;;;;2063540;28;20494;-67
2023/12/16 04:09:18;;;;;;;2.47;1.00;;;19.60;70.50;;;;;;2060965;28;20097;-67
2023/12/16 04:10:18;;;;;;;4.05;1.50;;;19.60;69.80;;;;;;2062868;28;20069;-66
2023/12/16 04:11:19;;;;;;;2.55;1.15;;;19.60;69.90;;;;;;2063838;28;20036;-67
2023/12/16 04:12:19;;;;;;;3.30;1.20;;;19.50;69.80;;;;;;2062790;28;20465;-66
2023/12/16 04:13:20;;;;;;;4.15;1.25;;;19.50;69.80;;;;;;2063644;28;20066;-67
2023/12/16 04:14:21;;;;;;;2.83;1.20;;;19.50;69.80;;;;;;2063138;28;20390;-67
2023/12/16 04:15:21;;;;;;;2.38;1.23;;;19.50;69.80;;;;;;2061416;28;20755;-67
2023/12/16 04:16:22;;;;;;;3.60;1.33;;;19.50;69.80;;;;;;2063918;28;20082;-67
2023/12/16 04:17:22;;;;;;;1.95;1.05;;;19.50;69.80;;;;;;2063122;28;20219;-67
2023/12/16 04:18:23;;;;;;;2.95;1.20;;;19.50;69.80;;;;;;2062814;28;20073;-66
2023/12/16 04:19:24;;;;;;;2.95;1.33;;;19.50;69.80;;;;;;2062425;28;20030;-67
2023/12/16 04:20:26;;;;;;;4.07;1.20;;;19.50;70.40;;;;;;2063438;28;20633;-67
2023/12/16 04:21:26;;;;;;;4.18;1.38;;;19.50;69.80;;;;;;2063675;28;20537;-66
2023/12/16 04:22:27;;;;;;;1.90;0.98;;;19.50;69.80;;;;;;2061945;28;20054;-66
2023/12/16 04:23:28;;;;;;;2.33;1.02;;;19.50;69.80;;;;;;2063363;28;20031;-67
2023/12/16 04:24:28;;;;;;;3.05;1.10;;;19.50;69.70;;;;;;2063173;28;20479;-67
2023/12/16 04:25:29;;;;;;;3.30;1.40;;;19.50;69.70;;;;;;2060922;28;20050;-67
2023/12/16 04:26:29;;;;;;;3.45;1.35;;;19.50;69.70;;;;;;2061315;28;20463;-67
2023/12/16 04:27:30;;;;;;;2.33;1.20;;;19.50;69.70;;;;;;2061287;28;20022;-67
2023/12/16 04:28:31;;;;;;;5.65;1.42;;;19.50;69.80;;;;;;2058498;28;20077;-67
2023/12/16 04:29:31;;;;;;;2.72;1.00;;;19.50;69.70;;;;;;2063861;28;20101;-66
2023/12/16 04:30:32;;;;;;;5.47;1.23;;;19.50;69.60;;;;;;2062484;28;20758;-67
2023/12/16 04:31:33;;;;;;;4.63;1.30;;;19.60;69.70;;;;;;2052861;28;20388;-66
2023/12/16 04:32:33;;;;;;;3.28;1.38;;;19.40;69.60;;;;;;2057367;28;20029;-66
2023/12/16 04:33:34;;;;;;;4.35;1.08;;;19.50;69.70;;;;;;2061992;28;20394;-67
2023/12/16 04:34:34;;;;;;;3.25;1.35;;;19.50;69.60;;;;;;2063045;28;20026;-66
2023/12/16 04:35:35;;;;;;;3.92;1.15;;;19.50;69.60;;;;;;2063721;28;20345;-67
2023/12/16 04:36:35;;;;;;;4.38;1.30;;;19.50;69.70;;;;;;2063538;28;20050;-67
2023/12/16 04:37:36;;;;;;;3.42;1.30;;;19.50;69.70;;;;;;2063382;28;20502;-67
2023/12/16 04:38:37;;;;;;;4.05;1.65;;;19.50;69.70;;;;;;2063193;28;20102;-67
2023/12/16 04:39:38;;;;;;;2.85;1.35;;;19.50;69.70;;;;;;2061561;28;20022;-67
2023/12/16 04:40:39;;;;;;;2.67;1.30;;;19.50;69.70;;;;;;2058699;28;20118;-68
2023/12/16 04:41:40;;;;;;;2.30;1.13;;;19.50;69.70;;;;;;2061481;28;20019;-67
2023/12/16 04:42:41;;;;;;;3.35;1.27;;;19.50;69.70;;;;;;2060684;28;20104;-67
2023/12/16 04:43:42;;;;;;;3.17;1.30;;;19.50;69.70;;;;;;2064104;28;20478;-67
2023/12/16 04:44:42;;;;;;;2.83;1.20;;;19.50;69.80;;;;;;2060024;28;20038;-67
2023/12/16 04:45:43;;;;;;;3.72;1.25;;;19.50;69.70;;;;;;2060708;28;20030;-66
2023/12/16 04:46:44;;;;;;;2.78;1.10;;;19.50;69.80;;;;;;2063869;28;20031;-67
2023/12/16 04:47:44;;;;;;;3.45;1.40;;;19.50;69.80;;;;;;2062628;28;20026;-67
2023/12/16 04:48:45;;;;;;;1.73;1.05;;;19.50;69.70;;;;;;2054409;28;20023;-66
2023/12/16 04:49:45;;;;;;;4.38;1.40;;;19.50;69.70;;;;;;2059099;28;20118;-67
2023/12/16 04:50:46;;;;;;;2.35;1.27;;;19.50;69.60;;;;;;2060842;28;20107;-66
2023/12/16 04:51:46;;;;;;;2.75;1.08;;;19.50;69.60;;;;;;2061368;28;20113;-67
2023/12/16 04:52:47;;;;;;;2.60;1.20;;;19.50;70.30;;;;;;2061506;28;20088;-66
2023/12/16 04:53:48;;;;;;;3.90;1.30;;;19.30;69.50;;;;;;2063280;28;20105;-66
2023/12/16 04:54:48;;;;;;;2.40;1.20;;;19.50;69.60;;;;;;2063637;28;20026;-67
2023/12/16 04:55:49;;;;;;;2.17;1.02;;;19.50;69.50;;;;;;2060871;28;20440;-67
2023/12/16 04:56:50;;;;;;;4.00;1.27;;;19.50;69.50;;;;;;2063482;28;20049;-67
2023/12/16 04:57:51;;;;;;;3.83;1.40;;;19.40;70.10;;;;;;2059544;28;20023;-66
2023/12/16 04:58:51;;;;;;;3.53;1.17;;;19.50;69.60;;;;;;2061332;28;20030;-67
2023/12/16 04:59:52;;;;;;;2.38;1.10;;;19.40;69.50;;;;;;2061859;28;20121;-67
2023/12/16 05:00:52;;;;;;;3.28;1.30;;;19.50;69.50;;;;;;2062116;28;20758;-67
2023/12/16 05:01:53;;;;;;;4.35;1.52;;;19.50;69.50;;;;;;2062960;28;20145;-66
2023/12/16 05:02:53;;;;;;;4.95;1.65;;;19.40;69.40;;;;;;2062576;28;20102;-67
2023/12/16 05:03:55;;;;;;;3.38;1.33;;;19.40;69.40;;;;;;2063014;28;20026;-67
2023/12/16 05:04:55;;;;;;;3.70;1.42;;;19.40;69.40;;;;;;2063340;28;20026;-67
2023/12/16 05:05:56;;;;;;;3.08;1.10;;;19.40;69.40;;;;;;2059171;28;20030;-66
2023/12/16 05:06:56;;;;;;;3.78;1.20;;;19.40;69.40;;;;;;2062510;28;20437;-67
2023/12/16 05:07:57;;;;;;;2.40;1.10;;;19.40;69.50;;;;;;2061338;28;20022;-66
2023/12/16 05:08:58;;;;;;;3.65;1.58;;;19.40;69.50;;;;;;2062180;28;20052;-67
2023/12/16 05:09:58;;;;;;;5.78;1.52;;;19.40;69.50;;;;;;2062505;28;20487;-66
2023/12/16 05:10:59;;;;;;;2.97;1.25;;;19.40;70.10;;;;;;2062491;28;20034;-67
2023/12/16 05:11:59;;;;;;;4.55;1.50;;;19.40;69.40;;;;;;2059932;28;20478;-67
2023/12/16 05:13:00;;;;;;;2.45;1.27;;;19.40;69.50;;;;;;2062834;28;20034;-67
2023/12/16 05:14:01;;;;;;;3.28;1.30;;;19.40;69.40;;;;;;2057000;28;20035;-67
2023/12/16 05:15:03;;;;;;;3.05;1.20;;;19.40;69.40;;;;;;2062915;28;20049;-66
2023/12/16 05:16:04;;;;;;;2.88;1.13;;;19.40;69.40;;;;;;2063187;28;20457;-66
2023/12/16 05:17:04;;;;;;;2.58;1.08;;;19.40;69.40;;;;;;2062206;28;20479;-66